Time;durP1;ratioP1;P1;durP2;ratioP2;P2;SDS_P1;SDS_P2;PMS_P1;PMS_P2;Temp;Humidity;BMP_temperature;BMP_pressure;BME280_temperature;BME280_humidity;BME280_pressure;Samples;Min_cycle;Max_cycle;Signal;HPM_P1;HPM_P2
2021/10/30 06:28:56;;;;;;;3.95;2.49;;;;;;;9.72;92.50;98290.34;2332205;68;20197;-80
2021/10/30 06:31:59;;;;;;;5.36;3.09;;;;;;;9.72;92.81;98293.97;2337656;68;20139;-78
2021/10/30 06:35:03;;;;;;;6.79;3.84;;;;;;;9.72;92.65;98300.00;2335565;68;20279;-78
2021/10/30 06:38:05;;;;;;;3.72;3.42;;;;;;;9.74;92.42;98302.84;2337867;68;20250;-79
2021/10/30 06:41:11;;;;;;;5.75;3.60;;;;;;;9.75;92.43;98303.03;2336819;68;20229;-78
2021/10/30 06:44:33;;;;;;;3.44;3.13;;;;;;;9.76;92.68;98305.28;2335571;68;20154;-79
2021/10/30 06:47:36;;;;;;;6.45;3.69;;;;;;;9.76;92.83;98308.91;2334884;66;23390;-78
2021/10/30 06:50:39;;;;;;;6.61;3.84;;;;;;;9.76;92.96;98311.75;2338029;68;20210;-79
2021/10/30 06:53:42;;;;;;;4.63;3.44;;;;;;;9.76;93.03;98314.84;2336834;68;20567;-79
2021/10/30 06:56:44;;;;;;;5.06;3.65;;;;;;;9.76;93.24;98313.00;2336333;68;20150;-79
2021/10/30 06:59:47;;;;;;;4.09;3.38;;;;;;;9.77;93.15;98308.34;2332216;68;20623;-80
2021/10/30 07:02:52;;;;;;;5.91;3.91;;;;;;;9.78;93.05;98308.00;2340680;65;24615;-80
2021/10/30 07:05:54;;;;;;;6.11;3.92;;;;;;;9.80;93.08;98306.50;2341665;68;20154;-79
2021/10/30 07:08:57;;;;;;;5.39;4.04;;;;;;;9.81;93.18;98305.34;2336950;68;20220;-79
2021/10/30 07:12:00;;;;;;;8.49;4.07;;;;;;;9.82;93.15;98303.63;2338319;68;20218;-81
2021/10/30 07:15:21;;;;;;;6.91;4.20;;;;;;;9.83;93.41;98303.19;2334606;66;22979;-78
2021/10/30 07:18:23;;;;;;;4.69;3.75;;;;;;;9.82;93.67;98302.66;2335625;68;20298;-79
2021/10/30 07:21:26;;;;;;;5.85;4.44;;;;;;;9.83;93.94;98303.03;2335220;68;20553;-79
2021/10/30 07:24:28;;;;;;;6.22;3.80;;;;;;;9.85;93.83;98300.69;2335946;68;20158;-78
2021/10/30 07:27:31;;;;;;;4.80;3.90;;;;;;;9.87;93.83;98306.56;2344000;68;20612;-80
2021/10/30 07:30:34;;;;;;;5.41;4.14;;;;;;;9.88;93.82;98305.41;2358294;65;35386;-81
2021/10/30 07:33:36;;;;;;;6.00;4.34;;;;;;;9.89;93.73;98307.16;2348813;68;20158;-79
2021/10/30 07:36:39;;;;;;;7.95;4.18;;;;;;;9.91;93.65;98309.28;2350720;68;20103;-81
2021/10/30 07:39:42;;;;;;;7.41;4.00;;;;;;;9.93;93.42;98311.06;2347143;68;20131;-80
2021/10/30 07:42:44;;;;;;;5.79;4.29;;;;;;;9.94;93.60;98309.97;2350687;68;20169;-81
2021/10/30 07:45:47;;;;;;;6.40;5.09;;;;;;;9.96;93.75;98307.72;2349309;65;23005;-81
2021/10/30 07:48:53;;;;;;;6.45;4.61;;;;;;;9.97;93.81;98305.97;2353462;68;20127;-80
2021/10/30 07:51:55;;;;;;;8.14;5.00;;;;;;;9.98;93.85;98303.66;2346717;68;20186;-80
2021/10/30 07:54:58;;;;;;;7.53;4.75;;;;;;;10.00;93.75;98302.44;2344198;68;20230;-81
2021/10/30 07:58:01;;;;;;;6.72;4.61;;;;;;;10.02;93.68;98299.59;2342868;68;20150;-80
2021/10/30 08:01:03;;;;;;;5.49;4.13;;;;;;;10.03;93.81;98298.00;2342163;68;20279;-80
2021/10/30 08:04:06;;;;;;;5.70;4.63;;;;;;;10.04;94.04;98296.50;2341729;68;20267;-80
2021/10/30 08:07:09;;;;;;;5.84;4.82;;;;;;;10.05;93.94;98296.56;2337117;68;20234;-78
2021/10/30 08:10:12;;;;;;;6.25;4.88;;;;;;;10.07;93.97;98291.91;2342052;68;20162;-80
2021/10/30 08:13:14;;;;;;;9.04;6.01;;;;;;;10.08;93.87;98286.84;2346855;68;20134;-80
2021/10/30 08:16:20;;;;;;;8.35;5.51;;;;;;;10.10;93.87;98282.28;2342723;68;20174;-80
2021/10/30 08:19:23;;;;;;;10.69;5.63;;;;;;;10.12;93.83;98277.91;2342640;68;20106;-81
2021/10/30 08:22:25;;;;;;;10.18;6.03;;;;;;;10.13;93.65;98275.75;2345434;68;20154;-79
2021/10/30 08:25:29;;;;;;;7.44;5.36;;;;;;;10.15;93.49;98278.16;2339282;68;20208;-79
2021/10/30 08:28:31;;;;;;;7.56;5.32;;;;;;;10.16;93.81;98278.19;2339884;68;20142;-80
2021/10/30 08:31:34;;;;;;;7.38;6.11;;;;;;;10.17;93.89;98274.81;2342573;65;26477;-81
2021/10/30 08:34:38;;;;;;;7.21;5.91;;;;;;;10.19;93.88;98273.72;2354034;68;20214;-81
2021/10/30 08:37:40;;;;;;;7.99;6.21;;;;;;;10.21;93.82;98273.22;2349201;68;20150;-80
2021/10/30 08:40:43;;;;;;;11.14;5.94;;;;;;;10.24;93.82;98271.25;2341149;68;20623;-80
2021/10/30 08:43:48;;;;;;;7.95;5.20;;;;;;;10.26;93.79;98270.94;2339171;68;20150;-79
2021/10/30 08:46:51;;;;;;;6.10;5.26;;;;;;;10.28;93.63;98269.91;2335419;65;23621;-79
2021/10/30 08:49:54;;;;;;;7.94;5.28;;;;;;;10.31;93.39;98264.78;2337265;68;20636;-79
2021/10/30 08:53:00;;;;;;;5.70;4.51;;;;;;;10.33;93.04;98262.72;2338108;68;20634;-79
2021/10/30 08:56:04;;;;;;;6.97;5.16;;;;;;;10.36;92.79;98263.84;2337339;68;20154;-80
2021/10/30 08:59:11;;;;;;;8.55;4.29;;;;;;;10.38;92.76;98263.38;2347737;68;20099;-80
2021/10/30 09:02:30;;;;;;;6.57;4.20;;;;;;;10.40;92.74;98256.28;2343231;65;23382;-80
2021/10/30 09:05:33;;;;;;;;;;;;;;;10.41;92.45;98251.91;2342227;68;20114;-82
2021/10/30 09:08:36;;;;;;;8.40;4.66;;;;;;;10.43;92.34;98246.69;2345385;68;20020;-80
2021/10/30 09:11:42;;;;;;;7.55;4.46;;;;;;;10.44;92.23;98241.22;2344126;68;20654;-82
2021/10/30 09:14:45;;;;;;;7.76;4.45;;;;;;;10.47;92.14;98237.66;2341213;68;20139;-81
2021/10/30 09:17:49;;;;;;;4.53;4.15;;;;;;;10.49;92.16;98235.88;2352030;68;20132;-81
2021/10/30 09:20:53;;;;;;;5.25;4.32;;;;;;;10.51;91.95;98236.72;2350510;68;20198;-81
2021/10/30 09:23:58;;;;;;;5.79;4.32;;;;;;;10.53;91.93;98236.88;2352188;68;20175;-82
2021/10/30 09:27:01;;;;;;;5.09;3.97;;;;;;;10.55;91.81;98235.25;2351251;68;20146;-81
2021/10/30 09:30:04;;;;;;;4.70;3.50;;;;;;;10.57;91.63;98231.94;2340795;68;20144;-82
2021/10/30 09:33:11;;;;;;;5.44;3.75;;;;;;;10.59;91.39;98228.69;2349615;68;20099;-81
2021/10/30 09:36:15;;;;;;;6.56;3.30;;;;;;;10.62;91.32;98224.84;2346401;68;20174;-81
2021/10/30 10:44:08;;;;;;;4.03;2.76;;;;;;;10.95;91.88;98201.56;2311918;68;20190;31
2021/10/30 10:47:41;;;;;;;2.96;2.75;;;;;;;10.98;91.73;98207.06;2342017;68;20185;-82
2021/10/30 10:50:49;;;;;;;2.99;2.20;;;;;;;11.02;91.65;98209.94;2323205;69;20148;-82
2021/10/30 10:53:58;;;;;;;2.60;2.40;;;;;;;11.06;91.51;98205.41;2329086;68;20200;-83
2021/10/30 10:57:00;;;;;;;;;;;;;;;11.11;91.50;98199.25;2333326;68;20160;-83
2021/10/30 11:00:10;;;;;;;3.60;1.95;;;;;;;11.15;91.53;98191.13;2330857;69;20047;-82
2021/10/30 11:03:26;;;;;;;1.98;1.77;;;;;;;11.18;91.66;98180.19;2337180;68;20125;-83
2021/10/30 11:06:32;;;;;;;4.50;2.00;;;;;;;11.22;91.71;98175.44;2327805;68;20124;-83
2021/10/30 11:09:51;;;;;;;2.97;1.79;;;;;;;11.25;91.60;98176.25;2317856;69;20207;-84
2021/10/30 11:12:59;;;;;;;3.04;1.83;;;;;;;11.29;91.38;98173.03;2333530;68;20156;-84
2021/10/30 11:16:03;;;;;;;3.09;1.88;;;;;;;11.31;91.29;98168.00;2328134;68;20122;-83
2021/10/30 11:19:21;;;;;;;2.69;2.00;;;;;;;11.35;91.26;98166.72;2309668;69;20166;-84
2021/10/30 11:22:25;;;;;;;3.67;1.60;;;;;;;11.38;91.05;98164.84;2312106;69;20147;-85
2021/10/30 11:25:39;;;;;;;4.34;1.48;;;;;;;11.41;90.92;98162.78;2307335;69;20110;-83
2021/10/30 11:29:10;;;;;;;2.11;1.60;;;;;;;11.43;90.78;98160.63;2310734;69;20123;-84
2021/10/30 11:32:19;;;;;;;2.83;1.64;;;;;;;11.47;90.72;98158.78;2303118;69;20111;-84
2021/10/30 11:35:26;;;;;;;3.19;2.11;;;;;;;11.50;90.41;98157.63;2303842;69;20145;-85
2021/10/30 11:38:52;;;;;;;2.85;1.77;;;;;;;11.54;90.25;98157.56;2310373;69;20149;-85
2021/10/30 12:13:11;;;;;;;3.01;2.75;;;;;;;11.71;89.71;98165.69;2324387;68;20107;-83
2021/10/30 12:16:22;;;;;;;3.10;2.54;;;;;;;11.73;89.47;98164.81;2329792;69;20149;-81
2021/10/30 12:26:28;;;;;;;4.70;3.17;;;;;;;11.83;89.61;98157.09;2332734;68;20199;-81
2021/10/30 12:29:45;;;;;;;6.11;2.61;;;;;;;11.86;89.63;98155.25;2339076;68;20146;-80
2021/10/30 12:33:10;;;;;;;4.79;3.15;;;;;;;11.88;89.51;98153.47;2330048;68;20121;-81
2021/10/30 12:36:37;;;;;;;3.33;2.50;;;;;;;11.90;89.47;98151.69;2320974;69;20152;-81
2021/10/30 12:40:07;;;;;;;2.39;2.20;;;;;;;11.90;89.42;98151.13;2321263;69;20137;-81
2021/10/30 12:43:27;;;;;;;3.34;2.92;;;;;;;11.89;89.18;98154.69;2309380;69;20223;-81
2021/10/30 12:46:56;;;;;;;3.04;2.74;;;;;;;11.87;89.08;98156.34;2306047;69;20255;-80
2021/10/30 12:50:01;;;;;;;4.30;2.53;;;;;;;11.82;88.53;98155.84;2312086;69;20981;-80
2021/10/30 12:53:04;;;;;;;4.80;2.89;;;;;;;11.78;88.58;98155.34;2317821;69;20149;-81
2021/10/30 12:56:09;;;;;;;4.22;2.36;;;;;;;11.73;88.78;98154.16;2310458;69;20141;-81
2021/10/30 12:59:13;;;;;;;3.74;2.66;;;;;;;11.68;89.07;98150.50;2312039;69;20180;-83
2021/10/30 13:02:24;;;;;;;6.15;3.01;;;;;;;11.64;89.21;98144.47;2283707;67;74347;-80
2021/10/30 13:05:27;;;;;;;2.96;2.69;;;;;;;11.62;89.51;98140.47;2283816;70;20184;-79
2021/10/30 13:08:31;;;;;;;4.21;2.89;;;;;;;11.61;89.66;98137.69;2284705;70;20167;-80
2021/10/30 13:11:34;;;;;;;3.66;2.49;;;;;;;11.60;89.76;98135.13;2293407;70;20944;-81
2021/10/30 13:14:39;;;;;;;2.40;2.20;;;;;;;11.57;89.54;98135.06;2288458;70;20993;-81
2021/10/30 13:17:42;;;;;;;3.71;2.71;;;;;;;11.54;89.95;98133.69;2291782;67;32779;-82
2021/10/30 13:20:45;;;;;;;3.34;2.46;;;;;;;11.51;89.92;98134.59;2311671;69;20218;-81
2021/10/30 13:23:50;;;;;;;3.28;2.78;;;;;;;11.47;89.90;98134.88;2312651;69;20661;-81
2021/10/30 13:26:53;;;;;;;2.34;2.14;;;;;;;11.45;90.09;98136.53;2307363;69;20204;-81
2021/10/30 13:29:56;;;;;;;2.94;2.60;;;;;;;11.42;90.24;98139.16;2315432;69;20149;-81
2021/10/30 13:32:59;;;;;;;3.42;2.67;;;;;;;11.39;90.44;98138.06;2327837;66;28342;-81
2021/10/30 13:36:02;;;;;;;4.03;2.91;;;;;;;11.38;90.70;98136.56;2346290;68;20099;-81
2021/10/30 13:39:05;;;;;;;3.03;2.66;;;;;;;11.37;90.77;98134.47;2344594;68;20151;-83
2021/10/30 13:42:10;;;;;;;2.58;2.38;;;;;;;11.37;90.97;98133.16;2346041;68;20146;-81
2021/10/30 13:45:12;;;;;;;4.64;2.70;;;;;;;11.37;90.93;98131.78;2342288;68;20219;-80
2021/10/30 13:48:15;;;;;;;2.74;2.53;;;;;;;11.36;90.58;98129.84;2338805;66;54203;-80
2021/10/30 13:51:19;;;;;;;3.50;2.50;;;;;;;11.35;90.75;98126.56;2343307;68;20912;-80
2021/10/30 13:54:22;;;;;;;3.66;3.36;;;;;;;11.34;90.44;98124.81;2341546;68;20150;-80
2021/10/30 13:57:25;;;;;;;3.66;3.35;;;;;;;11.31;90.39;98124.94;2341598;68;20150;-80
2021/10/30 14:00:28;;;;;;;3.41;3.10;;;;;;;11.28;90.42;98122.81;2341222;68;20166;-80
2021/10/30 14:03:31;;;;;;;3.41;2.99;;;;;;;11.26;90.53;98121.56;2340968;68;20162;-80
2021/10/30 14:06:39;;;;;;;3.11;2.81;;;;;;;11.23;90.53;98119.09;2309047;69;20977;-80
2021/10/30 14:09:58;;;;;;;4.07;2.91;;;;;;;11.22;90.58;98119.50;2302504;69;20559;-80
2021/10/30 14:13:22;;;;;;;3.65;3.33;;;;;;;11.21;90.21;98119.22;2312731;69;20190;-79
2021/10/30 14:17:10;;;;;;;3.78;3.45;;;;;;;11.19;90.15;98118.53;2306498;69;20161;-80
2021/10/30 14:20:57;;;;;;;3.90;2.67;;;;;;;11.18;90.22;98116.72;2304175;69;20187;-80
2021/10/30 14:31:07;;;;;;;5.14;3.95;;;;;;;11.12;89.83;98118.66;2335818;68;20150;-80
2021/10/30 14:34:30;;;;;;;4.20;3.61;;;;;;;11.11;89.65;98118.72;2337901;68;20158;-81
2021/10/30 14:38:17;;;;;;;8.16;3.58;;;;;;;11.10;89.82;98121.94;2325809;68;20325;-81
2021/10/30 14:41:48;;;;;;;3.70;3.40;;;;;;;11.11;89.99;98123.97;2342340;68;20128;-81
2021/10/30 14:46:21;;;;;;;4.53;3.15;;;;;;;11.11;89.82;98124.72;2318559;69;20153;-81
2021/10/30 15:35:40;;;;;;;4.60;3.44;;;;;;;10.92;92.40;98156.03;2326990;68;20126;-81
2021/10/30 15:38:44;;;;;;;4.30;3.89;;;;;;;10.92;92.41;98157.44;2338335;68;20116;-81
2021/10/30 16:08:21;;;;;;;6.19;4.74;;;;;;;10.96;94.35;98170.00;2344760;68;20096;-83
2021/10/30 16:59:40;;;;;;;4.76;4.39;;;;;;;11.13;96.48;98211.38;2340707;68;20111;-82
2021/10/30 17:52:33;;;;;;;6.07;4.84;;;;;;;11.18;95.19;98275.56;2349271;68;20108;-87
2021/10/30 17:55:43;;;;;;;5.21;4.72;;;;;;;11.17;95.23;98277.38;2321930;73;20104;-87
2021/10/30 17:58:46;;;;;;;5.22;4.75;;;;;;;11.17;95.18;98280.31;2324480;69;20145;-84
2021/10/30 18:01:49;;;;;;;5.50;4.95;;;;;;;11.16;95.18;98284.50;2333709;68;20147;-83
2021/10/30 18:04:54;;;;;;;6.20;4.44;;;;;;;11.16;95.35;98287.53;2331791;68;20122;-84
2021/10/30 18:07:57;;;;;;;5.07;4.61;;;;;;;11.17;95.54;98291.41;2340359;68;20364;-84
2021/10/30 18:11:00;;;;;;;6.35;5.71;;;;;;;11.18;95.59;98298.06;2342027;68;20108;-83
2021/10/30 18:14:05;;;;;;;5.30;4.74;;;;;;;11.20;95.79;98302.53;2318118;68;20124;-84
2021/10/30 18:17:08;;;;;;;5.19;4.38;;;;;;;11.23;96.13;98308.41;2347793;68;20327;-84
2021/10/30 18:20:13;;;;;;;6.66;4.43;;;;;;;11.26;96.43;98310.72;2339719;68;20125;-84
2021/10/30 18:23:20;;;;;;;5.61;4.74;;;;;;;11.30;96.44;98314.88;2342250;68;20160;-84
2021/10/30 18:26:24;;;;;;;4.80;4.36;;;;;;;11.33;96.43;98319.16;2333327;68;20100;-83
2021/10/30 18:29:30;;;;;;;4.39;3.99;;;;;;;11.38;96.73;98321.97;2311502;69;20176;-83
2021/10/30 18:32:39;;;;;;;4.71;3.90;;;;;;;11.42;96.93;98324.19;2325333;69;20113;-84
2021/10/30 18:35:54;;;;;;;3.84;3.03;;;;;;;11.46;97.09;98328.34;2315651;68;20101;-84
2021/10/30 18:39:16;;;;;;;4.36;2.89;;;;;;;11.51;97.44;98331.59;2326765;69;20196;-84
2021/10/30 18:42:25;;;;;;;3.64;3.03;;;;;;;11.56;97.52;98334.00;2306618;69;20247;-84
2021/10/30 18:45:37;;;;;;;2.88;2.64;;;;;;;11.61;97.81;98337.25;2314995;70;20165;-84
2021/10/30 18:48:44;;;;;;;5.10;2.97;;;;;;;11.66;98.06;98343.28;2328640;69;20198;-84
2021/10/30 18:52:09;;;;;;;4.30;2.60;;;;;;;11.72;98.18;98347.16;2355362;68;20126;-84
2021/10/30 18:55:29;;;;;;;4.01;2.11;;;;;;;11.76;97.96;98349.31;2322355;69;20108;-83
2021/10/30 18:58:48;;;;;;;3.26;2.55;;;;;;;11.80;97.81;98352.53;2317517;69;20253;-84
2021/10/30 19:02:09;;;;;;;2.00;1.88;;;;;;;11.84;97.63;98356.22;2314223;69;20156;-83
2021/10/30 19:05:24;;;;;;;4.40;2.22;;;;;;;11.86;97.35;98357.00;2319407;69;20157;-82
2021/10/30 19:09:07;;;;;;;3.16;1.71;;;;;;;11.89;97.40;98359.47;2318749;69;20137;-83
2021/10/30 19:12:35;;;;;;;2.29;1.95;;;;;;;11.90;97.26;98360.03;2293314;70;20120;-84
2021/10/30 19:16:00;;;;;;;2.45;1.91;;;;;;;11.90;96.96;98363.84;2286044;70;20125;-85
2021/10/30 19:19:27;;;;;;;3.54;2.12;;;;;;;11.88;96.91;98368.03;2289362;70;20125;-84
2021/10/30 19:22:44;;;;;;;2.44;2.15;;;;;;;11.87;96.93;98369.06;2275089;70;20114;-83
2021/10/30 19:26:05;;;;;;;2.53;2.33;;;;;;;11.87;97.14;98371.25;2293830;70;20228;-85
2021/10/30 19:29:46;;;;;;;2.30;1.59;;;;;;;11.86;97.19;98372.72;2298232;69;20214;-84
2021/10/30 19:33:16;;;;;;;1.73;1.63;;;;;;;11.86;97.13;98376.19;2295814;70;20144;-84
2021/10/30 19:36:55;;;;;;;2.26;1.81;;;;;;;11.86;97.29;98379.75;2274083;70;20268;-84
2021/10/30 19:40:35;;;;;;;2.72;2.05;;;;;;;11.88;97.48;98381.78;2278968;70;20215;-84
2021/10/30 19:44:49;;;;;;;2.33;1.67;;;;;;;11.91;97.90;98386.88;2260533;75;20123;-83
2021/10/30 19:48:48;;;;;;;1.80;1.70;;;;;;;11.95;98.17;98389.16;2259692;71;20157;-84
2021/10/30 19:52:36;;;;;;;;;;;;;;;11.99;98.19;98389.31;2267307;71;20139;-87
2021/10/30 19:56:41;;;;;;;1.54;1.36;;;;;;;12.04;98.16;98391.06;2270899;71;20146;-83
2021/10/30 20:00:57;;;;;;;1.40;1.30;;;;;;;12.08;98.35;98393.66;2276517;71;20343;-84
2021/10/30 20:04:39;;;;;;;1.17;1.08;;;;;;;12.12;98.29;98396.81;2260140;71;20099;-85
2021/10/30 20:08:35;;;;;;;1.00;1.00;;;;;;;12.16;98.55;98400.09;2269135;71;20112;-84
2021/10/30 20:17:07;;;;;;;1.89;1.09;;;;;;;12.25;98.81;98400.44;2364128;68;20118;-88
2021/10/30 20:21:09;;;;;;;;;;;;;;;12.31;98.67;98401.38;2367467;68;20109;-86
2021/10/30 20:25:27;;;;;;;1.05;0.95;;;;;;;12.36;98.98;98404.63;2349707;68;19999;-86
2021/10/30 20:36:11;;;;;;;3.06;0.93;;;;;;;12.50;99.02;98411.53;2323190;69;20109;-83
2021/10/30 20:40:20;;;;;;;1.09;1.00;;;;;;;12.54;99.07;98414.81;2325600;69;20172;-84
2021/10/30 20:54:48;;;;;;;1.74;1.10;;;;;;;12.71;98.53;98432.19;2351819;68;20115;-84
2021/10/30 21:03:17;;;;;;;1.79;1.00;;;;;;;12.76;98.41;98438.78;2349948;68;20205;-84
2021/10/30 21:07:35;;;;;;;2.14;0.98;;;;;;;12.79;98.39;98444.59;2299607;70;20279;-87
2021/10/30 21:12:02;;;;;;;1.70;1.00;;;;;;;12.81;98.41;98448.81;2257016;72;20125;-84
2021/10/30 21:33:13;;;;;;;1.02;0.93;;;;;;;12.88;98.65;98465.91;2355788;68;870638;-83
2021/10/30 21:47:09;;;;;;;2.61;1.20;;;;;;;12.97;99.01;98480.59;2321141;68;20190;-81
2021/10/30 21:50:49;;;;;;;1.94;1.14;;;;;;;12.99;99.29;98487.47;2351754;68;20107;-81
2021/10/30 22:34:39;;;;;;;2.41;1.48;;;;;;;13.02;97.92;98536.88;2389303;68;20131;-85
2021/10/30 22:48:56;;;;;;;1.75;1.30;;;;;;;12.77;97.79;98540.97;2380692;68;20123;-83
2021/10/30 22:53:06;;;;;;;2.29;1.35;;;;;;;12.74;98.18;98544.63;2346918;69;20116;-86
2021/10/30 22:57:06;;;;;;;1.26;1.09;;;;;;;12.71;99.00;98548.03;2337286;68;20165;-83
2021/10/30 23:01:06;;;;;;;1.20;1.00;;;;;;;12.70;98.92;98549.59;2308141;69;20171;-82
2021/10/30 23:05:32;;;;;;;1.50;1.39;;;;;;;12.68;98.64;98550.25;2307907;70;20273;-83
2021/10/30 23:09:47;;;;;;;2.59;1.14;;;;;;;12.66;98.90;98551.28;2287195;70;20229;-83
2021/10/30 23:14:16;;;;;;;1.26;1.09;;;;;;;12.65;99.03;98553.44;2231408;76;20190;-84
2021/10/30 23:25:13;;;;;;;2.96;1.40;;;;;;;12.54;99.09;98560.59;2350014;68;20132;-85
2021/10/30 23:29:35;;;;;;;1.98;1.49;;;;;;;12.52;99.39;98563.84;2301468;69;20212;-84
2021/10/30 23:43:55;;;;;;;5.31;1.49;;;;;;;12.50;99.89;98574.09;2383118;68;20111;-83
2021/10/30 23:48:17;;;;;;;2.58;1.29;;;;;;;12.50;99.65;98575.34;2358404;68;20118;-82
2021/10/30 23:52:37;;;;;;;1.49;1.02;;;;;;;12.50;100.00;98577.84;2359898;68;20208;-82
